Terminal Aerodrome Forecast
Issued by NWS

Home | Current Version | Previous Version | Text Only | Print | Product List | Glossary On
Versions: 1 2 3 4 5 6 7 8 9 10 11 12 13 14 15 16 17 18 19 20 21 22 23 24 25
000
FTUS46 KMTR 050500
TAFSFO
TAF
KSFO 050520Z 0506/0612 25009KT P6SM FEW013 BKN017 BKN020
     FM051600 26012G18KT P6SM FEW013 BKN017 BKN020
     FM052000 28015G25KT P6SM SCT020
     FM052300 26022G28KT P6SM FEW020
     FM060400 26015KT P6SM BKN015=

USA.gov is the U.S. government's official web portal to all federal, state and local government web resources and services.